Time;durP1;ratioP1;P1;durP2;ratioP2;P2;SDS_P1;SDS_P2;PMS_P1;PMS_P2;Temp;Humidity;BMP_temperature;BMP_pressure;BME280_temperature;BME280_humidity;BME280_pressure;Samples;Min_cycle;Max_cycle;Signal;HPM_P1;HPM_P2
2024/03/24 00:01:08;;;;;;;;;;;;;;;9.07;50.01;99700.50;4918627;28;98284;-73
2024/03/24 00:03:36;;;;;;;;;;;;;;;9.08;49.42;99699.44;4927893;28;98272;-67
2024/03/24 00:06:03;;;;;;;;;;;;;;;9.09;49.63;99697.56;4915209;28;98853;-72
2024/03/24 00:08:33;;;;;;;;;;;;;;;9.07;49.82;99691.63;4915308;28;98595;-72
2024/03/24 00:10:59;;;;;;;;;;;;;;;9.06;49.47;99696.22;4915427;28;98099;-72
2024/03/24 00:13:26;;;;;;;;;;;;;;;9.06;50.01;99690.84;4921845;28;98333;-67
2024/03/24 00:15:53;;;;;;;;;;;;;;;9.07;49.18;99694.34;4929200;28;98062;-72
2024/03/24 00:18:19;;;;;;;;;;;;;;;9.06;49.31;99693.53;4924821;28;98549;-72
2024/03/24 00:20:46;;;;;;;;;;;;;;;9.05;49.99;99686.56;4912261;28;98300;-72
2024/03/24 00:23:13;;;;;;;;;;;;;;;9.05;49.62;99683.06;4913920;28;98352;-67
2024/03/24 00:25:39;;;;;;;;;;;;;;;9.06;49.75;99687.34;4911699;28;98283;-72
2024/03/24 00:28:06;;;;;;;;;;;;;;;9.12;49.96;99685.44;4914082;28;98424;-72
2024/03/24 00:30:32;;;;;;;;;;;;;;;9.18;49.81;99679.75;4930263;28;98081;-67
2024/03/24 00:32:59;;;;;;;;;;;;;;;9.23;49.67;99678.94;4931500;28;98434;-72
2024/03/24 00:35:26;;;;;;;;;;;;;;;9.27;49.67;99685.34;4925917;28;98134;-67
2024/03/24 00:37:52;;;;;;;;;;;;;;;9.31;49.97;99667.59;4910884;28;98544;-72
2024/03/24 00:40:18;;;;;;;;;;;;;;;9.33;49.79;99676.19;4928852;28;98581;-72
2024/03/24 00:42:45;;;;;;;;;;;;;;;9.35;49.82;99665.94;4928363;28;98090;-70
2024/03/24 00:45:12;;;;;;;;;;;;;;;9.37;49.84;99673.75;4933107;28;97927;-73
2024/03/24 00:47:39;;;;;;;;;;;;;;;9.38;49.92;99673.47;4914350;28;98833;-73
2024/03/24 00:50:06;;;;;;;;;;;;;;;9.38;49.76;99665.41;4915343;28;98846;-73
2024/03/24 00:52:32;;;;;;;;;;;;;;;9.40;49.56;99665.13;4917558;28;97967;-72
2024/03/24 00:54:59;;;;;;;;;;;;;;;9.39;50.26;99661.63;4927624;28;99862;-67
2024/03/24 00:57:26;;;;;;;;;;;;;;;9.38;49.87;99653.84;4915941;28;99525;-72
2024/03/24 00:59:52;;;;;;;;;;;;;;;9.39;49.50;99664.31;4920257;28;98183;-72
2024/03/24 01:02:19;;;;;;;;;;;;;;;9.38;49.19;99659.22;4911025;28;98269;-67
2024/03/24 01:04:46;;;;;;;;;;;;;;;9.37;49.60;99652.25;4913778;28;98605;-67
2024/03/24 01:07:15;;;;;;;;;;;;;;;9.36;49.38;99656.81;4911217;28;98445;-67
2024/03/24 01:09:41;;;;;;;;;;;;;;;9.34;49.83;99654.38;4910717;28;98199;-73
2024/03/24 01:12:09;;;;;;;;;;;;;;;9.34;49.94;99654.38;4910607;28;98254;-73
2024/03/24 01:14:35;;;;;;;;;;;;;;;9.31;49.51;99644.22;4912703;28;98568;-67
2024/03/24 01:17:03;;;;;;;;;;;;;;;9.30;49.86;99639.09;4908533;28;99540;-73
2024/03/24 01:19:29;;;;;;;;;;;;;;;9.29;49.91;99640.97;4930212;28;98762;-73
2024/03/24 01:21:56;;;;;;;;;;;;;;;9.28;49.73;99635.91;4915713;28;98057;-67
2024/03/24 01:24:22;;;;;;;;;;;;;;;9.27;49.76;99629.69;4928701;28;99833;-72
2024/03/24 01:26:49;;;;;;;;;;;;;;;9.27;49.74;99636.94;4917480;28;98148;-67
2024/03/24 01:29:16;;;;;;;;;;;;;;;9.26;49.59;99627.28;4910188;28;99259;-72
2024/03/24 01:31:43;;;;;;;;;;;;;;;9.24;49.87;99630.25;4915394;28;98386;-70
2024/03/24 01:34:09;;;;;;;;;;;;;;;9.23;49.67;99617.88;4911989;28;98105;-73
2024/03/24 01:36:36;;;;;;;;;;;;;;;9.22;49.42;99618.97;4908834;28;97831;-67
2024/03/24 01:39:03;;;;;;;;;;;;;;;9.21;49.63;99612.00;4913745;28;98086;-72
2024/03/24 01:41:29;;;;;;;;;;;;;;;9.21;49.79;99611.19;4911389;28;99717;-67
2024/03/24 01:43:59;;;;;;;;;;;;;;;9.20;49.63;99612.28;4916109;28;100650;-67
2024/03/24 01:46:26;;;;;;;;;;;;;;;9.17;49.92;99615.53;4912992;28;99993;-73
2024/03/24 01:48:53;;;;;;;;;;;;;;;9.16;49.66;99616.59;4932983;28;97966;-73
2024/03/24 01:51:19;;;;;;;;;;;;;;;9.13;49.94;99604.50;4912643;28;98671;-73
2024/03/24 01:53:46;;;;;;;;;;;;;;;9.12;49.53;99607.47;4915380;28;98242;-72
2024/03/24 01:56:13;;;;;;;;;;;;;;;9.10;50.19;99607.75;4915340;28;98362;-67
2024/03/24 01:58:39;;;;;;;;;;;;;;;9.08;49.51;99612.63;4914681;28;98057;-73
2024/03/24 02:01:07;;;;;;;;;;;;;;;9.05;50.09;99611.28;4913910;28;98164;-73
2024/03/24 02:03:37;;;;;;;;;;;;;;;9.03;50.25;99613.44;4921828;28;98835;-67
2024/03/24 02:06:04;;;;;;;;;;;;;;;9.01;50.13;99601.38;4915080;28;98726;-67
2024/03/24 02:08:31;;;;;;;;;;;;;;;9.00;49.23;99614.00;4923662;28;98155;-72
2024/03/24 02:11:00;;;;;;;;;;;;;;;8.98;49.42;99605.41;4914387;28;99002;-67
2024/03/24 02:13:27;;;;;;;;;;;;;;;8.96;50.07;99601.38;4915964;28;98319;-73
2024/03/24 02:15:54;;;;;;;;;;;;;;;8.95;49.74;99605.16;4912214;28;97985;-72
2024/03/24 02:18:22;;;;;;;;;;;;;;;8.93;49.60;99594.69;4908367;28;98199;-67
2024/03/24 02:20:48;;;;;;;;;;;;;;;8.90;49.81;99595.22;4911021;28;98535;-66
2024/03/24 02:23:15;;;;;;;;;;;;;;;8.88;49.84;99597.38;4910568;28;97999;-67
2024/03/24 02:25:41;;;;;;;;;;;;;;;8.87;49.21;99597.66;4930720;28;98023;-72
2024/03/24 02:28:07;;;;;;;;;;;;;;;8.85;49.23;99593.38;4908537;28;98375;-67
2024/03/24 02:30:34;;;;;;;;;;;;;;;8.84;49.43;99586.41;4913651;28;98576;-72
2024/03/24 02:33:02;;;;;;;;;;;;;;;8.81;49.62;99583.47;4906126;28;99707;-67
2024/03/24 02:35:28;;;;;;;;;;;;;;;8.81;49.81;99583.47;4938527;28;99090;-67
2024/03/24 02:37:55;;;;;;;;;;;;;;;8.78;49.51;99573.25;4910382;28;98360;-68
2024/03/24 02:40:23;;;;;;;;;;;;;;;8.77;50.05;99574.34;4913567;28;98144;-67
2024/03/24 02:42:49;;;;;;;;;;;;;;;8.75;49.51;99576.50;4913741;28;98092;-73
2024/03/24 02:45:16;;;;;;;;;;;;;;;8.74;50.16;99572.22;4924629;28;98490;-67
2024/03/24 02:47:43;;;;;;;;;;;;;;;8.71;49.95;99564.69;4909284;28;99521;-72
2024/03/24 02:50:09;;;;;;;;;;;;;;;8.71;50.09;99568.19;4912020;28;98126;-67
2024/03/24 02:52:36;;;;;;;;;;;;;;;8.70;49.96;99573.84;4924006;28;98385;-72
2024/03/24 02:55:03;;;;;;;;;;;;;;;8.67;49.44;99577.88;4904178;28;98079;-67
2024/03/24 02:57:31;;;;;;;;;;;;;;;8.66;49.65;99568.22;4912376;28;99539;-72
2024/03/24 02:59:57;;;;;;;;;;;;;;;8.64;50.03;99564.19;4931660;28;98170;-73
2024/03/24 03:02:24;;;;;;;;;;;;;;;8.64;49.76;99572.25;4913383;28;98597;-67
2024/03/24 03:04:50;;;;;;;;;;;;;;;8.62;50.18;99569.84;4928469;28;97948;-73
2024/03/24 03:07:17;;;;;;;;;;;;;;;8.60;50.02;99570.09;4908539;28;98395;-67
2024/03/24 03:09:44;;;;;;;;;;;;;;;8.60;49.97;99571.97;4908906;28;98838;-67
2024/03/24 03:12:10;;;;;;;;;;;;;;;8.59;49.76;99567.69;4912930;28;99431;-67
2024/03/24 03:14:37;;;;;;;;;;;;;;;8.57;49.76;99565.31;4912442;28;97961;-67
2024/03/24 03:17:03;;;;;;;;;;;;;;;8.57;49.27;99572.56;4922883;28;97922;-67
2024/03/24 03:19:31;;;;;;;;;;;;;;;8.56;49.95;99568.25;4910333;28;98234;-67
2024/03/24 03:21:58;;;;;;;;;;;;;;;8.55;49.70;99566.66;4912210;28;100416;-72
2024/03/24 03:24:25;;;;;;;;;;;;;;;8.53;49.69;99561.56;4912268;28;98166;-67
2024/03/24 03:26:52;;;;;;;;;;;;;;;8.53;50.17;99563.44;4911597;28;98167;-72
2024/03/24 03:29:19;;;;;;;;;;;;;;;8.51;49.39;99565.59;4907409;28;98796;-67
2024/03/24 03:31:45;;;;;;;;;;;;;;;8.50;49.54;99558.63;4911456;28;100536;-72
2024/03/24 03:34:12;;;;;;;;;;;;;;;8.49;49.63;99559.66;4910440;28;98141;-67
2024/03/24 03:36:39;;;;;;;;;;;;;;;8.47;50.07;99559.97;4908098;28;98238;-73
2024/03/24 03:39:06;;;;;;;;;;;;;;;8.45;49.73;99559.44;4907991;28;99522;-67
2024/03/24 03:41:33;;;;;;;;;;;;;;;8.45;49.78;99555.94;4901646;28;98119;-72
2024/03/24 03:44:00;;;;;;;;;;;;;;;8.42;49.69;99551.94;4914934;28;97870;-67
2024/03/24 03:46:27;;;;;;;;;;;;;;;8.41;49.71;99558.38;4929766;28;98258;-73
2024/03/24 03:48:53;;;;;;;;;;;;;;;8.41;50.19;99557.56;4910172;28;98016;-67
2024/03/24 03:51:29;;;;;;;;;;;;;;;8.38;49.57;99563.50;4922442;28;98131;-72
2024/03/24 03:53:58;;;;;;;;;;;;;;;8.37;50.07;99551.97;4912462;28;98112;-72
2024/03/24 03:56:24;;;;;;;;;;;;;;;8.35;49.90;99552.19;4914780;28;98116;-67
2024/03/24 03:58:51;;;;;;;;;;;;;;;8.34;50.03;99549.78;4911085;28;98654;-72
2024/03/24 04:01:17;;;;;;;;;;;;;;;8.33;49.63;99556.22;4913423;28;98045;-72
2024/03/24 04:03:44;;;;;;;;;;;;;;;8.32;49.85;99558.09;4908662;28;98025;-72
2024/03/24 04:06:10;;;;;;;;;;;;;;;8.30;49.81;99552.22;4920120;28;98383;-73
2024/03/24 04:08:38;;;;;;;;;;;;;;;8.30;49.95;99548.72;4927732;28;98124;-73
2024/03/24 04:11:05;;;;;;;;;;;;;;;8.29;49.18;99544.41;4908813;28;98352;-67
2024/03/24 04:13:31;;;;;;;;;;;;;;;8.27;49.82;99542.00;4908543;28;98764;-67
2024/03/24 04:15:57;;;;;;;;;;;;;;;8.26;49.77;99539.63;4908891;28;98404;-67
2024/03/24 04:18:24;;;;;;;;;;;;;;;8.25;49.90;99537.97;4910767;28;99461;-67
2024/03/24 04:20:51;;;;;;;;;;;;;;;8.24;49.65;99539.88;4920982;28;98196;-73
2024/03/24 04:23:19;;;;;;;;;;;;;;;8.23;49.76;99532.91;4913329;28;98033;-67
2024/03/24 04:25:49;;;;;;;;;;;;;;;8.21;50.05;99536.94;4907060;28;98553;-73
2024/03/24 04:28:15;;;;;;;;;;;;;;;8.22;49.36;99533.19;4912467;28;98253;-67
2024/03/24 04:30:42;;;;;;;;;;;;;;;8.19;49.41;99525.69;4927042;28;98164;-67
2024/03/24 04:33:08;;;;;;;;;;;;;;;8.18;49.99;99521.38;4924851;28;98176;-73
2024/03/24 04:35:34;;;;;;;;;;;;;;;8.17;49.98;99514.38;4916567;28;98218;-72
2024/03/24 04:38:01;;;;;;;;;;;;;;;8.16;50.14;99510.09;4914133;28;97946;-73
2024/03/24 04:40:28;;;;;;;;;;;;;;;8.15;49.26;99511.19;4915550;28;98020;-67
2024/03/24 04:42:54;;;;;;;;;;;;;;;8.14;49.38;99507.72;4909892;28;98152;-67
2024/03/24 04:45:22;;;;;;;;;;;;;;;8.13;49.54;99506.06;4910257;28;99429;-73
2024/03/24 04:47:48;;;;;;;;;;;;;;;8.11;49.66;99506.38;4919292;28;98152;-73
2024/03/24 04:50:15;;;;;;;;;;;;;;;8.11;49.40;99509.03;4914011;28;100080;-73
2024/03/24 04:52:41;;;;;;;;;;;;;;;8.11;49.94;99508.25;4910714;28;100207;-66
2024/03/24 04:55:08;;;;;;;;;;;;;;;8.10;49.89;99504.75;4915783;28;98086;-73
2024/03/24 04:57:35;;;;;;;;;;;;;;;8.10;49.86;99504.75;4934046;28;98070;-67
2024/03/24 05:00:05;;;;;;;;;;;;;;;8.10;49.27;99507.44;4914880;28;98075;-67
2024/03/24 05:02:32;;;;;;;;;;;;;;;8.09;49.49;99505.81;4914115;28;99540;-67
2024/03/24 05:04:59;;;;;;;;;;;;;;;8.09;49.33;99505.81;4912665;28;98705;-73
2024/03/24 05:07:25;;;;;;;;;;;;;;;8.12;49.54;99499.91;4916458;28;98000;-67
2024/03/24 05:09:53;;;;;;;;;;;;;;;8.15;49.32;99500.44;4933297;28;97894;-73
2024/03/24 05:12:19;;;;;;;;;;;;;;;8.17;49.33;99498.28;4930532;28;98189;-73
2024/03/24 05:14:45;;;;;;;;;;;;;;;8.19;49.74;99493.47;4915572;28;98230;-67
2024/03/24 05:17:13;;;;;;;;;;;;;;;8.22;49.23;99492.91;4913579;28;98935;-67
2024/03/24 05:19:40;;;;;;;;;;;;;;;8.23;49.42;99487.25;4919201;28;98591;-67
2024/03/24 05:22:07;;;;;;;;;;;;;;;8.25;49.12;99486.97;4912421;28;98031;-67
2024/03/24 05:24:35;;;;;;;;;;;;;;;8.25;49.95;99487.81;4915630;28;98127;-67
2024/03/24 05:27:04;;;;;;;;;;;;;;;8.27;49.96;99485.63;4907558;28;98658;-72
2024/03/24 05:29:31;;;;;;;;;;;;;;;8.30;49.25;99484.28;4911850;28;98175;-73
2024/03/24 05:31:57;;;;;;;;;;;;;;;8.34;49.45;99496.06;4912048;28;99705;-73
2024/03/24 05:34:27;;;;;;;;;;;;;;;8.38;49.04;99488.31;4913081;28;98636;-67
2024/03/24 05:36:54;;;;;;;;;;;;;;;8.40;49.29;99483.44;4931973;28;98150;-67
2024/03/24 05:39:21;;;;;;;;;;;;;;;8.43;49.54;99480.22;4914671;28;99491;-67
2024/03/24 05:41:48;;;;;;;;;;;;;;;8.44;49.68;99482.63;4922672;28;99562;-73
2024/03/24 05:44:15;;;;;;;;;;;;;;;8.47;49.11;99481.28;4912589;28;97994;-73
2024/03/24 05:46:43;;;;;;;;;;;;;;;8.50;49.42;99475.34;4922308;28;98082;-73
2024/03/24 05:49:11;;;;;;;;;;;;;;;8.53;49.28;99475.59;4921863;28;99892;-73
2024/03/24 05:51:37;;;;;;;;;;;;;;;8.56;49.25;99485.78;4922108;28;99222;-73
2024/03/24 05:54:05;;;;;;;;;;;;;;;8.59;49.09;99466.41;4916496;28;98031;-73
2024/03/24 05:56:32;;;;;;;;;;;;;;;8.67;49.25;99466.91;4929649;28;97861;-73
2024/03/24 05:58:58;;;;;;;;;;;;;;;8.80;48.98;99466.28;4895139;27;99303;-73
2024/03/24 06:01:26;;;;;;;;;;;;;;;8.94;49.12;99463.78;4922497;28;98271;-67
2024/03/24 06:03:53;;;;;;;;;;;;;;;9.01;48.98;99456.19;4961736;28;100229;-73
2024/03/24 06:06:19;;;;;;;;;;;;;;;9.10;48.57;99449.94;4931273;28;98206;-73
2024/03/24 06:08:46;;;;;;;;;;;;;;;9.22;49.12;99452.25;4948209;28;99957;-73
2024/03/24 06:11:13;;;;;;;;;;;;;;;9.38;48.90;99458.28;4953446;28;98044;-68
2024/03/24 06:13:40;;;;;;;;;;;;;;;9.53;48.75;99457.34;4942305;28;98256;-73
2024/03/24 06:16:07;;;;;;;;;;;;;;;9.72;48.79;99452.84;4952584;28;98637;-73
2024/03/24 06:18:34;;;;;;;;;;;;;;;9.90;48.50;99450.47;4930171;28;98926;-67
2024/03/24 06:21:00;;;;;;;;;;;;;;;10.00;48.75;99451.16;4947782;28;98535;-67
2024/03/24 06:23:27;;;;;;;;;;;;;;;10.08;48.33;99441.66;4928420;28;98413;-73
2024/03/24 06:25:54;;;;;;;;;;;;;;;10.15;48.42;99441.31;4933205;28;98979;-72
2024/03/24 06:28:20;;;;;;;;;;;;;;;10.18;48.56;99446.09;4951907;28;98658;-73
2024/03/24 06:30:48;;;;;;;;;;;;;;;10.19;48.83;99445.03;4931436;28;98488;-67
2024/03/24 06:33:15;;;;;;;;;;;;;;;10.22;48.97;99444.47;4935807;28;99271;-67
2024/03/24 06:35:41;;;;;;;;;;;;;;;10.22;48.76;99444.47;4963726;28;99332;-67
2024/03/24 06:38:09;;;;;;;;;;;;;;;10.20;48.77;99446.63;4930784;28;99169;-73
2024/03/24 06:40:35;;;;;;;;;;;;;;;10.26;48.61;99446.31;4951012;28;98277;-67
2024/03/24 06:43:06;;;;;;;;;;;;;;;10.33;48.41;99440.53;4936093;28;97973;-73
2024/03/24 06:45:36;;;;;;;;;;;;;;;10.49;48.41;99436.56;4943719;28;98071;-67
2024/03/24 06:48:04;;;;;;;;;;;;;;;10.53;48.80;99434.91;4932564;28;98056;-67
2024/03/24 06:50:31;;;;;;;;;;;;;;;10.59;48.47;99438.31;4928671;28;99680;-67
2024/03/24 06:52:57;;;;;;;;;;;;;;;10.65;48.77;99433.63;4938437;28;99361;-68
2024/03/24 06:55:25;;;;;;;;;;;;;;;10.77;48.71;99428.63;4940984;28;98320;-73
2024/03/24 06:57:52;;;;;;;;;;;;;;;10.91;48.21;99431.34;4958491;28;98211;-68
2024/03/24 07:00:18;;;;;;;;;;;;;;;11.05;48.32;99430.31;4929746;28;98136;-68
2024/03/24 07:02:46;;;;;;;;;;;;;;;11.18;48.40;99423.34;4943252;28;98226;-73
2024/03/24 07:05:12;;;;;;;;;;;;;;;11.31;48.39;99429.84;4946858;28;99211;-73
2024/03/24 07:07:39;;;;;;;;;;;;;;;11.41;47.99;99423.50;4940209;28;98984;-73
2024/03/24 07:10:06;;;;;;;;;;;;;;;11.48;48.32;99432.81;4936173;28;98379;-73
2024/03/24 07:12:34;;;;;;;;;;;;;;;11.53;48.18;99429.22;4961555;28;98053;-74
2024/03/24 07:15:00;;;;;;;;;;;;;;;11.60;48.08;99426.91;4938959;28;98200;-67
2024/03/24 07:17:27;;;;;;;;;;;;;;;11.77;48.04;99426.31;4938441;28;98572;-73
2024/03/24 07:19:54;;;;;;;;;;;;;;;12.06;47.73;99415.22;4930702;28;98193;-73
2024/03/24 07:22:21;;;;;;;;;;;;;;;12.30;47.73;99417.72;4928292;28;98550;-68
2024/03/24 07:24:48;;;;;;;;;;;;;;;12.46;47.73;99410.06;4935082;28;98011;-73
2024/03/24 07:27:15;;;;;;;;;;;;;;;12.39;47.86;99415.09;4932879;28;98369;-67
2024/03/24 07:29:42;;;;;;;;;;;;;;;12.41;48.03;99415.56;4942105;28;98339;-73
2024/03/24 07:32:09;;;;;;;;;;;;;;;12.62;47.79;99419.41;4942376;28;98111;-67
2024/03/24 07:34:36;;;;;;;;;;;;;;;12.54;48.17;99412.03;4942819;28;98246;-73
2024/03/24 07:37:03;;;;;;;;;;;;;;;12.86;47.54;99405.59;4939083;28;98276;-73
2024/03/24 07:39:30;;;;;;;;;;;;;;;13.18;47.50;99409.94;4927931;28;98533;-67
2024/03/24 07:41:57;;;;;;;;;;;;;;;13.72;46.76;99399.84;4940864;28;99619;-68
2024/03/24 07:44:24;;;;;;;;;;;;;;;13.94;46.74;99403.56;4937989;28;99404;-72
2024/03/24 07:46:50;;;;;;;;;;;;;;;13.86;47.18;99402.44;4939186;28;98305;-72
2024/03/24 07:49:17;;;;;;;;;;;;;;;14.60;46.56;99396.19;4949150;28;98469;-72
2024/03/24 07:51:43;;;;;;;;;;;;;;;14.88;46.48;99393.13;4928121;28;98353;-66
2024/03/24 07:54:10;;;;;;;;;;;;;;;15.52;45.71;99390.41;4924958;28;98690;-66
2024/03/24 07:56:36;;;;;;;;;;;;;;;15.31;46.50;99395.75;4936661;28;98336;-72
2024/03/24 07:59:03;;;;;;;;;;;;;;;15.71;46.21;99390.81;4932126;28;98046;-72
2024/03/24 08:01:30;;;;;;;;;;;;;;;16.10;45.91;99388.06;4931882;28;98142;-67
2024/03/24 08:03:56;;;;;;;;;;;;;;;16.18;46.20;99396.16;4931271;28;99238;-72
2024/03/24 08:06:23;;;;;;;;;;;;;;;17.02;45.46;99393.41;4941927;28;98187;-72
2024/03/24 08:08:51;;;;;;;;;;;;;;;16.47;46.29;99407.34;4939688;28;98487;-72
2024/03/24 08:11:17;;;;;;;;;;;;;;;16.41;46.52;99399.34;4932862;28;99741;-66
2024/03/24 08:13:44;;;;;;;;;;;;;;;17.81;45.13;99396.84;4933284;28;98162;-66
2024/03/24 08:16:11;;;;;;;;;;;;;;;19.08;43.90;99387.31;4932966;28;98128;-66
2024/03/24 08:18:38;;;;;;;;;;;;;;;20.25;43.22;99385.06;4942254;28;98376;-72
2024/03/24 08:21:05;;;;;;;;;;;;;;;21.08;43.04;99386.38;4929802;27;100243;-66
2024/03/24 08:23:31;;;;;;;;;;;;;;;21.89;42.70;99390.88;4953901;27;98849;-67
2024/03/24 08:25:58;;;;;;;;;;;;;;;22.36;42.60;99391.53;4944564;27;98414;-72
2024/03/24 08:28:26;;;;;;;;;;;;;;;22.91;42.66;99398.16;4969521;27;98845;-66
2024/03/24 08:30:53;;;;;;;;;;;;;;;23.36;42.68;99399.00;4969300;27;98147;-72
2024/03/24 08:33:20;;;;;;;;;;;;;;;23.25;43.31;99393.38;4948651;28;98310;-73
2024/03/24 08:35:47;;;;;;;;;;;;;;;23.06;43.68;99376.31;4949477;27;98347;-73
2024/03/24 08:38:14;;;;;;;;;;;;;;;22.92;44.03;99388.75;4948061;27;98394;-72
2024/03/24 08:40:40;;;;;;;;;;;;;;;22.55;44.69;99394.94;4963610;27;98175;-67
2024/03/24 08:43:07;;;;;;;;;;;;;;;22.13;45.08;99397.09;4950640;27;98393;-72
2024/03/24 08:45:36;;;;;;;;;;;;;;;21.76;45.49;99394.97;4949795;27;98532;-67
2024/03/24 08:48:03;;;;;;;;;;;;;;;21.52;45.81;99382.44;4948131;27;98125;-66
2024/03/24 08:50:31;;;;;;;;;;;;;;;21.40;45.69;99383.44;4949218;27;102232;-73
2024/03/24 08:52:57;;;;;;;;;;;;;;;21.15;45.99;99382.97;4964054;27;98119;-67
2024/03/24 08:55:25;;;;;;;;;;;;;;;21.33;45.74;99386.03;4949780;27;98084;-72
2024/03/24 08:57:52;;;;;;;;;;;;;;;21.08;46.15;99388.31;4953603;27;98522;-68
2024/03/24 09:00:18;;;;;;;;;;;;;;;20.99;46.22;99379.53;4946640;27;98709;-67
2024/03/24 09:02:46;;;;;;;;;;;;;;;20.98;46.10;99380.69;4949786;27;98292;-67
2024/03/24 09:05:12;;;;;;;;;;;;;;;20.68;46.53;99381.31;4950663;27;98494;-73
2024/03/24 09:07:39;;;;;;;;;;;;;;;20.47;46.76;99386.28;4946131;27;98252;-67
2024/03/24 09:10:06;;;;;;;;;;;;;;;20.26;46.81;99370.22;4946673;27;98669;-67
2024/03/24 09:12:32;;;;;;;;;;;;;;;20.37;46.69;99373.19;4948378;27;98307;-73
2024/03/24 09:14:59;;;;;;;;;;;;;;;20.44;46.47;99370.63;4954447;27;98428;-73
2024/03/24 09:17:31;;;;;;;;;;;;;;;20.53;46.46;99376.69;4948739;27;98349;-73
2024/03/24 09:19:59;;;;;;;;;;;;;;;20.58;46.28;99368.19;4965410;27;98221;-73
2024/03/24 09:22:25;;;;;;;;;;;;;;;20.62;46.26;99369.03;4955944;27;101942;-67
2024/03/24 09:24:52;;;;;;;;;;;;;;;20.53;46.37;99363.00;4943090;27;98338;-67
2024/03/24 09:27:18;;;;;;;;;;;;;;;20.35;46.71;99366.13;4961759;27;99186;-74
2024/03/24 09:29:45;;;;;;;;;;;;;;;20.20;46.81;99371.66;4940110;27;98146;-67
2024/03/24 09:32:11;;;;;;;;;;;;;;;20.07;46.88;99363.56;4944153;27;98009;-67
2024/03/24 09:34:39;;;;;;;;;;;;;;;20.04;46.94;99358.84;4960571;27;98512;-73
2024/03/24 09:37:06;;;;;;;;;;;;;;;20.03;46.95;99357.22;4946962;27;100852;-73
2024/03/24 09:39:32;;;;;;;;;;;;;;;20.29;46.51;99361.31;4952053;27;98566;-73
2024/03/24 09:42:00;;;;;;;;;;;;;;;20.43;46.43;99352.59;4950830;27;99659;-72
2024/03/24 09:44:26;;;;;;;;;;;;;;;20.40;46.45;99356.84;4948835;27;100115;-72
2024/03/24 09:46:58;;;;;;;;;;;;;;;20.48;46.37;99347.63;4970896;27;98019;-73
2024/03/24 09:49:27;;;;;;;;;;;;;;;20.74;46.16;99340.72;4960341;27;98187;-73
2024/03/24 09:51:54;;;;;;;;;;;;;;;21.30;45.62;99349.19;4941620;27;98248;-66
2024/03/24 09:54:22;;;;;;;;;;;;;;;22.44;44.47;99339.13;4969971;27;101163;-72
2024/03/24 09:56:49;;;;;;;;;;;;;;;23.36;44.09;99340.47;4953928;27;98372;-73
2024/03/24 09:59:15;;;;;;;;;;;;;;;22.89;45.02;99345.50;4943676;27;98878;-73
2024/03/24 10:01:44;;;;;;;;;;;;;;;23.75;44.21;99340.78;4963672;27;98460;-67
2024/03/24 10:04:10;;;;;;;;;;;;;;;24.14;44.16;99332.00;4946794;27;98885;-73
2024/03/24 10:06:37;;;;;;;;;;;;;;;24.30;44.45;99339.94;4946935;27;98084;-73
2024/03/24 10:09:05;;;;;;;;;;;;;;;25.16;43.80;99339.03;4944828;27;98735;-67
2024/03/24 10:11:33;;;;;;;;;;;;;;;25.32;43.70;99329.59;4952997;27;98080;-73
2024/03/24 10:14:04;;;;;;;;;;;;;;;25.30;44.22;99334.69;4951805;27;99024;-74
2024/03/24 10:16:34;;;;;;;;;;;;;;;24.55;45.09;99335.31;4948295;27;101910;-73
2024/03/24 10:19:14;;;;;;;;;;;;;;;24.12;45.59;99321.34;4963272;27;98088;-73
2024/03/24 10:21:41;;;;;;;;;;;;;;;23.61;46.13;99326.91;4946704;27;98681;-68
2024/03/24 10:24:08;;;;;;;;;;;;;;;23.11;46.57;99319.06;4971071;27;98887;-73
2024/03/24 10:26:37;;;;;;;;;;;;;;;23.09;46.51;99326.88;4946633;27;98323;-67
2024/03/24 10:29:05;;;;;;;;;;;;;;;22.50;46.79;99321.16;4951535;27;98278;-73
2024/03/24 10:31:37;;;;;;;;;;;;;;;21.86;47.53;99323.03;4948697;27;98286;-72
2024/03/24 10:34:03;;;;;;;;;;;;;;;21.35;47.71;99317.19;4948220;27;99006;-67
2024/03/24 10:36:37;;;;;;;;;;;;;;;21.06;47.75;99309.25;4964211;27;99780;-67
2024/03/24 10:39:07;;;;;;;;;;;;;;;20.76;47.83;99314.56;4947483;27;98481;-73
2024/03/24 10:41:34;;;;;;;;;;;;;;;20.33;48.05;99310.97;4967033;27;98510;-72
2024/03/24 10:44:02;;;;;;;;;;;;;;;19.86;48.33;99309.19;4950172;27;98394;-67
2024/03/24 10:46:32;;;;;;;;;;;;;;;19.45;48.55;99301.56;4961632;27;98154;-72
2024/03/24 10:49:02;;;;;;;;;;;;;;;19.13;48.50;99309.78;4961382;27;98074;-67
2024/03/24 10:51:32;;;;;;;;;;;;;;;18.85;48.61;99304.38;4976093;27;98287;-67
2024/03/24 10:54:02;;;;;;;;;;;;;;;18.62;48.78;99295.94;4952354;27;98430;-66
2024/03/24 10:56:30;;;;;;;;;;;;;;;18.40;48.45;99309.03;4951429;27;99590;-72
2024/03/24 10:59:00;;;;;;;;;;;;;;;18.17;48.70;99299.00;4994631;27;99438;-72
2024/03/24 11:01:27;;;;;;;;;;;;;;;17.88;48.85;99311.75;4951735;27;98285;-71
2024/03/24 11:03:54;;;;;;;;;;;;;;;17.63;48.96;99309.03;4965489;27;98274;-73
2024/03/24 11:06:21;;;;;;;;;;;;;;;17.39;48.87;99314.50;4962881;27;99023;-66
2024/03/24 11:08:47;;;;;;;;;;;;;;;17.15;48.84;99320.72;4948740;27;99139;-67
2024/03/24 11:11:13;;;;;;;;;;;;;;;16.97;49.03;99317.41;4974459;27;98843;-71
2024/03/24 11:13:40;;;;;;;;;;;;;;;16.80;49.05;99321.13;4950792;27;98008;-67
2024/03/24 11:16:08;;;;;;;;;;;;;;;16.64;48.87;99328.28;4963207;27;100299;-67
2024/03/24 11:18:34;;;;;;;;;;;;;;;16.53;49.06;99336.06;4948937;27;98413;-67
2024/03/24 11:21:03;;;;;;;;;;;;;;;16.43;48.76;99334.56;4947274;27;98153;-71
2024/03/24 11:23:39;;;;;;;;;;;;;;;16.34;48.77;99336.53;4964526;27;98384;-67
2024/03/24 11:26:13;;;;;;;;;;;;;;;16.23;48.78;99320.97;4964233;27;97992;-66
2024/03/24 11:28:43;;;;;;;;;;;;;;;16.13;48.72;99336.56;4952630;27;98551;-67
2024/03/24 11:31:33;;;;;;;;;;;;;;;16.06;48.60;99335.47;4963574;27;98078;-67
2024/03/24 11:34:00;;;;;;;;;;;;;;;16.05;48.46;99326.53;4964232;27;99581;-71
2024/03/24 11:36:27;;;;;;;;;;;;;;;16.01;48.45;99320.19;4978064;27;99713;-67
2024/03/24 11:38:55;;;;;;;;;;;;;;;15.95;48.39;99313.34;4944544;27;98188;-67
2024/03/24 11:41:23;;;;;;;;;;;;;;;15.95;48.29;99316.88;4943741;27;98506;-68
2024/03/24 11:44:00;;;;;;;;;;;;;;;16.01;48.37;99316.66;4945720;27;98119;-72
2024/03/24 11:46:30;;;;;;;;;;;;;;;16.17;48.23;99313.00;4954746;27;98384;-72
2024/03/24 11:48:57;;;;;;;;;;;;;;;16.37;47.89;99316.06;4945608;27;98281;-67
2024/03/24 11:51:24;;;;;;;;;;;;;;;16.61;47.60;99304.47;4947820;27;98322;-67
2024/03/24 11:53:52;;;;;;;;;;;;;;;16.90;47.35;99309.03;4948668;27;98219;-72
2024/03/24 11:56:19;;;;;;;;;;;;;;;16.91;47.64;99302.44;4950315;27;98285;-72
2024/03/24 11:58:57;;;;;;;;;;;;;;;16.93;47.71;99302.88;4947276;27;98282;-68
2024/03/24 12:01:24;;;;;;;;;;;;;;;17.15;47.40;99291.56;4964944;27;98634;-72
2024/03/24 12:03:51;;;;;;;;;;;;;;;17.32;47.38;99301.44;4943967;27;98088;-67
2024/03/24 12:06:19;;;;;;;;;;;;;;;17.19;47.69;99299.88;4947866;27;98797;-73
2024/03/24 12:08:46;;;;;;;;;;;;;;;17.07;47.66;99299.84;4955807;27;98868;-67
2024/03/24 12:11:14;;;;;;;;;;;;;;;16.90;48.00;99307.09;4947547;27;100782;-72
2024/03/24 12:13:41;;;;;;;;;;;;;;;16.75;48.16;99291.41;4942347;27;100090;-67
2024/03/24 12:16:08;;;;;;;;;;;;;;;16.58;48.25;99294.25;4942143;27;99316;-67
2024/03/24 12:18:36;;;;;;;;;;;;;;;16.38;48.40;99298.59;4949899;27;99731;-72
2024/03/24 12:21:03;;;;;;;;;;;;;;;16.19;48.44;99299.06;4948023;27;98324;-67
2024/03/24 12:23:29;;;;;;;;;;;;;;;16.06;48.43;99302.88;4959451;27;100248;-67
2024/03/24 12:25:55;;;;;;;;;;;;;;;16.16;48.25;99291.59;4966153;27;98022;-68
2024/03/24 12:28:22;;;;;;;;;;;;;;;16.16;48.11;99289.69;4946096;27;98245;-67
2024/03/24 12:30:52;;;;;;;;;;;;;;;16.17;47.91;99288.56;4948281;27;98963;-73
2024/03/24 12:33:19;;;;;;;;;;;;;;;16.10;48.11;99284.78;4976716;27;98174;-67
2024/03/24 12:35:46;;;;;;;;;;;;;;;15.97;48.13;99283.91;4947683;27;98256;-67
2024/03/24 12:38:13;;;;;;;;;;;;;;;15.81;48.46;99286.44;4948076;27;98748;-72
2024/03/24 12:41:01;;;;;;;;;;;;;;;15.69;48.38;99280.91;4949103;27;99020;-72
2024/03/24 12:43:27;;;;;;;;;;;;;;;15.57;48.40;99278.88;4988488;27;98578;-67
2024/03/24 12:45:55;;;;;;;;;;;;;;;15.47;48.59;99284.69;4961378;27;98212;-67
2024/03/24 12:48:25;;;;;;;;;;;;;;;15.39;48.58;99291.75;4942577;27;98137;-67
2024/03/24 12:50:52;;;;;;;;;;;;;;;15.36;48.23;99281.53;4948600;27;98622;-71